Time;durP1;ratioP1;P1;durP2;ratioP2;P2;SDS_P1;SDS_P2;PMS_P1;PMS_P2;Temp;Humidity;BMP_temperature;BMP_pressure;BME280_temperature;BME280_humidity;BME280_pressure;Samples;Min_cycle;Max_cycle;Signal;HPM_P1;HPM_P2
2023/12/15 00:00:38;;;;;;;2.15;0.95;;;;;;;;;;5077324;28;20058;-22
2023/12/15 00:03:04;;;;;;;1.50;1.23;;;;;;;;;;5077384;28;20048;-20
2023/12/15 00:05:30;;;;;;;1.75;0.80;;;;;;;;;;5077516;28;20016;-21
2023/12/15 00:07:56;;;;;;;1.50;0.70;;;;;;;;;;5077548;28;20051;-18
2023/12/15 00:10:22;;;;;;;6.60;1.55;;;;;;;;;;5077156;28;20052;-20
2023/12/15 00:12:48;;;;;;;0.93;0.88;;;;;;;;;;5077202;28;20017;-18
2023/12/15 00:15:15;;;;;;;1.23;0.80;;;;;;;;;;5077330;28;20103;-22
2023/12/15 00:17:41;;;;;;;2.55;1.15;;;;;;;;;;5077106;28;20025;-19
2023/12/15 00:20:07;;;;;;;2.08;1.05;;;;;;;;;;5077068;28;20094;-18
2023/12/15 00:22:33;;;;;;;1.42;0.70;;;;;;;;;;5077236;28;20051;-21
2023/12/15 00:24:59;;;;;;;1.38;1.00;;;;;;;;;;5077409;28;20040;-21
2023/12/15 00:27:26;;;;;;;2.13;1.13;;;;;;;;;;5076963;28;20363;-18
2023/12/15 00:29:52;;;;;;;0.80;0.77;;;;;;;;;;5075908;28;20048;-18
2023/12/15 00:32:18;;;;;;;1.38;1.00;;;;;;;;;;5076806;28;20060;-21
2023/12/15 00:34:45;;;;;;;0.70;0.60;;;;;;;;;;5076990;28;20025;-19
2023/12/15 00:37:11;;;;;;;1.30;0.98;;;;;;;;;;5077009;28;20457;-21
2023/12/15 00:39:37;;;;;;;4.05;1.45;;;;;;;;;;5076909;28;20025;-21
2023/12/15 00:42:05;;;;;;;2.35;0.88;;;;;;;;;;5075677;28;20032;-20
2023/12/15 00:44:32;;;;;;;1.85;1.10;;;;;;;;;;5076441;28;20134;-20
2023/12/15 00:46:59;;;;;;;2.50;1.25;;;;;;;;;;5076835;28;20374;-20
2023/12/15 00:49:25;;;;;;;1.38;0.80;;;;;;;;;;5076476;28;20044;-20
2023/12/15 00:51:52;;;;;;;4.90;1.10;;;;;;;;;;5076427;28;20025;-18
2023/12/15 00:54:18;;;;;;;3.55;0.95;;;;;;;;;;5076416;28;20048;-19
2023/12/15 00:56:44;;;;;;;1.80;0.88;;;;;;;;;;5076335;28;20021;-20
2023/12/15 00:59:10;;;;;;;1.08;0.75;;;;;;;;;;5076490;28;20021;-19
2023/12/15 01:01:36;;;;;;;3.33;0.70;;;;;;;;;;5076263;28;20024;-19
2023/12/15 01:04:03;;;;;;;1.45;0.80;;;;;;;;;;5076032;28;20044;-26
2023/12/15 01:06:30;;;;;;;1.60;0.98;;;;;;;;;;5076189;28;20451;-22
2023/12/15 01:08:56;;;;;;;1.95;0.85;;;;;;;;;;5076036;28;20107;-21
2023/12/15 01:11:23;;;;;;;2.75;1.23;;;;;;;;;;5076064;28;20116;-21
2023/12/15 01:13:49;;;;;;;1.88;0.98;;;;;;;;;;5076267;28;20165;-21
2023/12/15 01:16:15;;;;;;;1.52;1.00;;;;;;;;;;5076144;28;20067;-21
2023/12/15 01:18:41;;;;;;;1.17;0.90;;;;;;;;;;5075846;28;20528;-19
2023/12/15 01:21:07;;;;;;;2.08;1.23;;;;;;;;;;5075782;28;20041;-22
2023/12/15 01:23:38;;;;;;;3.33;0.93;;;;;;;;;;5075705;28;20456;-21
2023/12/15 01:26:04;;;;;;;1.58;0.90;;;;;;;;;;5076025;28;20387;-21
2023/12/15 01:28:30;;;;;;;2.00;1.10;;;;;;;;;;5075665;28;20048;-22
2023/12/15 01:31:01;;;;;;;2.78;0.90;;;;;;;;;;5075564;28;20024;-19
2023/12/15 01:33:27;;;;;;;1.10;0.73;;;;;;;;;;5075876;28;20025;-18
2023/12/15 01:35:53;;;;;;;1.45;0.85;;;;;;;;;;5075824;28;20037;-19
2023/12/15 01:38:19;;;;;;;2.33;0.93;;;;;;;;;;5075504;28;20032;-18
2023/12/15 01:40:45;;;;;;;1.10;0.70;;;;;;;;;;5075964;28;20028;-19
2023/12/15 01:43:11;;;;;;;4.13;1.00;;;;;;;;;;5075413;28;20053;-20
2023/12/15 01:45:38;;;;;;;1.85;0.90;;;;;;;;;;5075246;28;20363;-18
2023/12/15 01:48:04;;;;;;;0.85;0.60;;;;;;;;;;5075577;28;20123;-19
2023/12/15 01:50:30;;;;;;;2.30;0.85;;;;;;;;;;5075305;28;20025;-20
2023/12/15 01:52:57;;;;;;;3.42;0.93;;;;;;;;;;5075101;28;20042;-18
2023/12/15 01:55:23;;;;;;;1.42;0.75;;;;;;;;;;5075149;28;20064;-18
2023/12/15 01:57:49;;;;;;;1.13;0.73;;;;;;;;;;5075177;28;20025;-21
2023/12/15 02:00:15;;;;;;;1.30;0.90;;;;;;;;;;5075264;28;20032;-22
2023/12/15 02:02:41;;;;;;;1.92;0.93;;;;;;;;;;5074881;28;20054;-18
2023/12/15 02:05:08;;;;;;;1.42;0.88;;;;;;;;;;5076058;28;20344;-21
2023/12/15 02:07:34;;;;;;;1.95;0.90;;;;;;;;;;5075007;28;20048;-20
2023/12/15 02:10:00;;;;;;;1.73;1.10;;;;;;;;;;5074950;28;20103;-19
2023/12/15 02:12:26;;;;;;;1.63;1.50;;;;;;;;;;5074850;28;20067;-23
2023/12/15 02:14:52;;;;;;;1.95;1.35;;;;;;;;;;5075344;28;20032;-23
2023/12/15 02:17:18;;;;;;;1.33;1.13;;;;;;;;;;5075157;28;20057;-23
2023/12/15 02:19:44;;;;;;;1.25;0.90;;;;;;;;;;5074843;28;20327;-20
2023/12/15 02:22:10;;;;;;;1.58;0.98;;;;;;;;;;5073831;28;20106;-20
2023/12/15 02:24:39;;;;;;;1.52;0.85;;;;;;;;;;5074708;28;20032;-21
2023/12/15 02:27:05;;;;;;;1.45;0.80;;;;;;;;;;5074737;28;20020;-20
2023/12/15 02:29:31;;;;;;;1.60;0.93;;;;;;;;;;5074650;28;20025;-20
2023/12/15 02:31:57;;;;;;;4.43;0.90;;;;;;;;;;5075004;28;20020;-22
2023/12/15 02:34:25;;;;;;;2.90;1.52;;;;;;;;;;5074688;28;20323;-21
2023/12/15 02:36:51;;;;;;;2.20;0.93;;;;;;;;;;5074706;28;20225;-19
2023/12/15 02:39:18;;;;;;;1.13;0.90;;;;;;;;;;5074636;28;20086;-19
2023/12/15 02:41:45;;;;;;;1.88;1.05;;;;;;;;;;5074885;28;20028;-20
2023/12/15 02:44:11;;;;;;;0.95;0.85;;;;;;;;;;5074465;28;20358;-18
2023/12/15 02:46:37;;;;;;;2.92;1.02;;;;;;;;;;5075037;28;20025;-22
2023/12/15 02:49:04;;;;;;;0.93;0.80;;;;;;;;;;5074468;28;20027;-18
2023/12/15 02:51:30;;;;;;;2.38;0.93;;;;;;;;;;5074527;28;20086;-20
2023/12/15 02:54:00;;;;;;;1.75;0.85;;;;;;;;;;5074808;28;20353;-22
2023/12/15 02:56:26;;;;;;;1.52;1.10;;;;;;;;;;5074453;28;20050;-21
2023/12/15 02:58:52;;;;;;;1.45;0.88;;;;;;;;;;5073506;28;20028;-19
2023/12/15 03:01:19;;;;;;;1.08;0.85;;;;;;;;;;5074321;28;20029;-18
2023/12/15 03:03:45;;;;;;;1.13;0.60;;;;;;;;;;5074245;28;20044;-19
2023/12/15 03:06:11;;;;;;;4.25;0.90;;;;;;;;;;5076820;28;20028;-20
2023/12/15 03:08:37;;;;;;;3.40;1.25;;;;;;;;;;5078660;28;20027;-20
2023/12/15 03:11:04;;;;;;;3.67;1.02;;;;;;;;;;5078384;28;20109;-20
2023/12/15 03:13:30;;;;;;;0.95;0.90;;;;;;;;;;5078321;28;20091;-18
2023/12/15 03:16:10;;;;;;;2.25;1.67;;;;;;;;;;5078224;28;20333;-22
2023/12/15 03:18:36;;;;;;;1.85;1.48;;;;;;;;;;5078179;28;20036;-20
2023/12/15 03:21:03;;;;;;;1.63;0.90;;;;;;;;;;5078160;28;20040;-20
2023/12/15 03:23:29;;;;;;;1.08;0.90;;;;;;;;;;5078124;28;20145;-20
2023/12/15 03:25:55;;;;;;;1.00;0.90;;;;;;;;;;5078292;28;20020;-20
2023/12/15 03:28:21;;;;;;;0.75;0.60;;;;;;;;;;5078292;28;20119;-17
2023/12/15 03:30:48;;;;;;;3.83;1.13;;;;;;;;;;5077818;28;20466;-22
2023/12/15 03:33:14;;;;;;;1.67;0.90;;;;;;;;;;5078194;28;20372;-19
2023/12/15 03:35:40;;;;;;;2.60;1.58;;;;;;;;;;5077806;28;20035;-21
2023/12/15 03:38:06;;;;;;;1.70;0.80;;;;;;;;;;5077865;28;20029;-19
2023/12/15 03:40:33;;;;;;;1.40;0.70;;;;;;;;;;5078010;28;20031;-20
2023/12/15 03:42:59;;;;;;;2.22;0.90;;;;;;;;;;5077741;28;20032;-18
2023/12/15 03:45:25;;;;;;;0.90;0.73;;;;;;;;;;5077524;28;20447;-21
2023/12/15 03:47:52;;;;;;;1.25;0.90;;;;;;;;;;5077647;28;20451;-23
2023/12/15 03:50:19;;;;;;;1.98;0.80;;;;;;;;;;5077597;28;20023;-17
2023/12/15 03:52:45;;;;;;;1.48;0.95;;;;;;;;;;5077490;28;20024;-20
2023/12/15 03:55:11;;;;;;;3.53;0.95;;;;;;;;;;5078050;28;20110;-19
2023/12/15 03:57:38;;;;;;;1.90;0.80;;;;;;;;;;5077518;28;20027;-22
2023/12/15 04:00:07;;;;;;;0.88;0.73;;;;;;;;;;5077332;28;20043;-21
2023/12/15 04:02:34;;;;;;;3.88;0.93;;;;;;;;;;5077356;28;20055;-19
2023/12/15 04:05:01;;;;;;;1.20;0.70;;;;;;;;;;5077590;28;20028;-20
2023/12/15 04:07:27;;;;;;;1.05;0.80;;;;;;;;;;5077575;28;20398;-21
2023/12/15 04:09:54;;;;;;;0.80;0.80;;;;;;;;;;5077577;28;20090;-20
2023/12/15 04:12:20;;;;;;;0.77;0.77;;;;;;;;;;5077497;28;20039;-20
2023/12/15 04:14:46;;;;;;;1.25;0.90;;;;;;;;;;5077051;28;20028;-19
2023/12/15 04:17:12;;;;;;;0.93;0.80;;;;;;;;;;5076850;28;20169;-19
2023/12/15 04:19:38;;;;;;;1.73;0.90;;;;;;;;;;5077584;28;20028;-19
2023/12/15 04:22:04;;;;;;;1.58;0.90;;;;;;;;;;5077005;28;20024;-21
2023/12/15 04:24:30;;;;;;;0.65;0.55;;;;;;;;;;5077146;28;20024;-23
2023/12/15 04:26:58;;;;;;;1.88;1.38;;;;;;;;;;5077525;28;20082;-22
2023/12/15 04:29:24;;;;;;;1.13;0.70;;;;;;;;;;5077106;28;20024;-23
2023/12/15 04:31:50;;;;;;;0.95;0.85;;;;;;;;;;5077143;28;20033;-21
2023/12/15 04:34:16;;;;;;;0.80;0.80;;;;;;;;;;5077080;28;20027;-19
2023/12/15 04:36:43;;;;;;;1.85;0.77;;;;;;;;;;5077015;28;20036;-20
2023/12/15 04:39:09;;;;;;;1.10;0.70;;;;;;;;;;5076945;28;20028;-24
2023/12/15 04:41:35;;;;;;;0.88;0.70;;;;;;;;;;5075713;28;20024;-21
2023/12/15 04:44:01;;;;;;;1.40;0.90;;;;;;;;;;5076609;28;20116;-24
2023/12/15 04:46:28;;;;;;;2.28;1.38;;;;;;;;;;5076519;28;20025;-20
2023/12/15 04:48:55;;;;;;;0.88;0.88;;;;;;;;;;5076813;28;20078;-20
2023/12/15 04:51:22;;;;;;;1.50;0.80;;;;;;;;;;5076730;28;20081;-24
2023/12/15 04:53:48;;;;;;;3.28;1.10;;;;;;;;;;5076421;28;20039;-21
2023/12/15 04:56:15;;;;;;;1.40;0.90;;;;;;;;;;5076905;28;20106;-21
2023/12/15 04:58:41;;;;;;;1.42;0.88;;;;;;;;;;5076290;28;20079;-25
2023/12/15 05:01:12;;;;;;;1.10;0.90;;;;;;;;;;5076167;28;20025;-19
2023/12/15 05:03:41;;;;;;;1.25;0.95;;;;;;;;;;5075998;28;20040;-19
2023/12/15 05:06:17;;;;;;;1.83;0.90;;;;;;;;;;5076036;28;20090;-21
2023/12/15 05:08:44;;;;;;;4.07;1.08;;;;;;;;;;5075989;28;20024;-20
2023/12/15 05:11:10;;;;;;;1.45;0.80;;;;;;;;;;5075950;28;20097;-20
2023/12/15 05:13:36;;;;;;;1.77;1.65;;;;;;;;;;5076233;28;20036;-18
2023/12/15 05:16:03;;;;;;;1.70;0.88;;;;;;;;;;5075623;28;20020;-22
2023/12/15 05:18:29;;;;;;;15.13;2.17;;;;;;;;;;5075617;28;20133;-22
2023/12/15 05:20:55;;;;;;;2.25;0.90;;;;;;;;;;5074498;28;20098;-20
2023/12/15 05:23:21;;;;;;;2.33;1.45;;;;;;;;;;5075625;28;20466;-22
2023/12/15 05:25:47;;;;;;;16.05;3.70;;;;;;;;;;5075409;28;20036;-21
2023/12/15 05:28:13;;;;;;;1.50;1.08;;;;;;;;;;5074761;28;20089;-21
2023/12/15 05:30:40;;;;;;;1.45;1.08;;;;;;;;;;5075206;28;20032;-21
2023/12/15 05:33:06;;;;;;;1.02;0.77;;;;;;;;;;5075273;28;20024;-20
2023/12/15 05:35:34;;;;;;;1.05;0.88;;;;;;;;;;5075185;28;20065;-22
2023/12/15 05:38:00;;;;;;;1.20;0.93;;;;;;;;;;5075552;28;20147;-20
2023/12/15 05:40:26;;;;;;;1.70;1.20;;;;;;;;;;5075883;28;20024;-18
2023/12/15 05:42:52;;;;;;;3.80;0.95;;;;;;;;;;5075428;28;20455;-21
2023/12/15 05:45:18;;;;;;;2.47;0.80;;;;;;;;;;5075308;28;20418;-21
2023/12/15 05:47:44;;;;;;;1.30;0.90;;;;;;;;;;5075175;28;20410;-18
2023/12/15 05:50:11;;;;;;;1.10;0.95;;;;;;;;;;5075010;28;20036;-23
2023/12/15 05:52:38;;;;;;;1.10;1.00;;;;;;;;;;5075246;28;20030;-22
2023/12/15 05:55:04;;;;;;;1.15;1.02;;;;;;;;;;5075211;28;20044;-18
2023/12/15 05:57:30;;;;;;;3.30;1.10;;;;;;;;;;5075098;28;20028;-21
2023/12/15 05:59:56;;;;;;;1.58;0.98;;;;;;;;;;5074833;28;20024;-22
2023/12/15 06:02:23;;;;;;;1.30;0.80;;;;;;;;;;5073331;28;20128;-19
2023/12/15 06:04:49;;;;;;;1.55;0.90;;;;;;;;;;5074908;28;20028;-19
2023/12/15 06:07:19;;;;;;;3.35;1.13;;;;;;;;;;5075274;28;20073;-21
2023/12/15 06:09:45;;;;;;;1.20;1.00;;;;;;;;;;5075001;28;20086;-20
2023/12/15 06:12:12;;;;;;;0.93;0.85;;;;;;;;;;5074713;28;20388;-17
2023/12/15 06:14:38;;;;;;;2.17;0.90;;;;;;;;;;5074993;28;20468;-22
2023/12/15 06:17:08;;;;;;;1.48;1.08;;;;;;;;;;5074797;28;20020;-19
2023/12/15 06:19:34;;;;;;;1.92;1.00;;;;;;;;;;5074956;28;20023;-20
2023/12/15 06:22:01;;;;;;;1.40;1.10;;;;;;;;;;5074542;28;20095;-18
2023/12/15 06:24:27;;;;;;;2.33;1.00;;;;;;;;;;5074800;28;20020;-19
2023/12/15 06:26:53;;;;;;;1.75;0.98;;;;;;;;;;5074619;28;20032;-21
2023/12/15 06:29:19;;;;;;;4.25;1.30;;;;;;;;;;5074645;28;20020;-23
2023/12/15 06:31:46;;;;;;;3.35;1.30;;;;;;;;;;5074769;28;20016;-25
2023/12/15 06:34:13;;;;;;;4.43;1.08;;;;;;;;;;5074520;28;20050;-21
2023/12/15 06:36:42;;;;;;;1.77;0.80;;;;;;;;;;5074653;28;20032;-22
2023/12/15 06:39:08;;;;;;;1.50;0.98;;;;;;;;;;5074867;28;20107;-23
2023/12/15 06:41:34;;;;;;;1.50;0.90;;;;;;;;;;5074348;28;20055;-19
2023/12/15 06:44:01;;;;;;;2.97;1.10;;;;;;;;;;5074242;28;20044;-22
2023/12/15 06:46:27;;;;;;;3.80;1.30;;;;;;;;;;5074531;28;20429;-22
2023/12/15 06:48:53;;;;;;;1.42;1.33;;;;;;;;;;5074299;28;20055;-21
2023/12/15 06:51:20;;;;;;;1.70;1.20;;;;;;;;;;5074573;28;20024;-20
2023/12/15 06:53:46;;;;;;;3.25;1.02;;;;;;;;;;5074508;28;20021;-21
2023/12/15 06:56:12;;;;;;;2.97;1.63;;;;;;;;;;5074249;28;20113;-20
2023/12/15 06:58:38;;;;;;;1.88;1.13;;;;;;;;;;5074706;28;20025;-23
2023/12/15 07:01:04;;;;;;;3.47;0.90;;;;;;;;;;5074478;28;20355;-20
2023/12/15 07:03:31;;;;;;;2.10;0.85;;;;;;;;;;5074007;28;20041;-20
2023/12/15 07:05:57;;;;;;;1.88;1.15;;;;;;;;;;5074166;28;20435;-20
2023/12/15 07:08:23;;;;;;;1.67;1.08;;;;;;;;;;5074182;28;20355;-19
2023/12/15 07:10:49;;;;;;;6.53;1.15;;;;;;;;;;5074160;28;20032;-23
2023/12/15 07:13:15;;;;;;;1.77;0.95;;;;;;;;;;5074036;28;20099;-22
2023/12/15 07:15:41;;;;;;;3.58;1.92;;;;;;;;;;5073869;28;20090;-18
2023/12/15 07:18:07;;;;;;;2.20;1.08;;;;;;;;;;5074001;28;20078;-25
2023/12/15 07:20:34;;;;;;;3.60;1.33;;;;;;;;;;5074188;28;20052;-22
2023/12/15 07:23:00;;;;;;;5.20;1.00;;;;;;;;;;5073953;28;20028;-19
2023/12/15 07:25:26;;;;;;;3.13;1.10;;;;;;;;;;5074079;28;20075;-22
2023/12/15 07:27:53;;;;;;;1.85;0.90;;;;;;;;;;5073800;28;20120;-20
2023/12/15 07:30:20;;;;;;;1.33;1.15;;;;;;;;;;5073753;28;20474;-18
2023/12/15 07:32:46;;;;;;;1.35;0.80;;;;;;;;;;5073768;28;20089;-22
2023/12/15 07:35:12;;;;;;;3.22;1.33;;;;;;;;;;5073812;28;20460;-21
2023/12/15 07:37:39;;;;;;;1.60;1.23;;;;;;;;;;5073767;28;20444;-19
2023/12/15 07:40:06;;;;;;;4.05;1.20;;;;;;;;;;5073747;28;20569;-18
2023/12/15 07:42:32;;;;;;;2.28;1.17;;;;;;;;;;5074128;28;20356;-18
2023/12/15 07:44:59;;;;;;;3.35;1.38;;;;;;;;;;5073716;28;20466;-22
2023/12/15 07:47:25;;;;;;;5.90;2.08;;;;;;;;;;5073819;28;20146;-22
2023/12/15 07:49:51;;;;;;;3.00;1.40;;;;;;;;;;5073990;28;20414;-19
2023/12/15 07:52:18;;;;;;;3.08;1.30;;;;;;;;;;5076061;28;20034;-21
2023/12/15 07:54:44;;;;;;;3.08;1.25;;;;;;;;;;5077286;28;20360;-22
2023/12/15 07:57:10;;;;;;;2.67;1.42;;;;;;;;;;5077294;28;20415;-19
2023/12/15 07:59:36;;;;;;;2.05;1.00;;;;;;;;;;5077496;28;20054;-19
2023/12/15 08:02:03;;;;;;;3.38;1.38;;;;;;;;;;5077004;28;20048;-21
2023/12/15 08:04:30;;;;;;;14.18;2.90;;;;;;;;;;5077352;28;20033;-19
2023/12/15 08:06:56;;;;;;;2.75;1.70;;;;;;;;;;5077116;28;20016;-21
2023/12/15 08:09:22;;;;;;;2.08;1.73;;;;;;;;;;5077201;28;20355;-21
2023/12/15 08:11:48;;;;;;;2.17;1.80;;;;;;;;;;5077059;28;20021;-23
2023/12/15 08:14:14;;;;;;;6.68;1.75;;;;;;;;;;5077071;28;20033;-23
2023/12/15 08:16:41;;;;;;;2.28;1.63;;;;;;;;;;5077282;28;20348;-19
2023/12/15 08:19:08;;;;;;;7.82;2.17;;;;;;;;;;5077046;28;20042;-23
2023/12/15 08:21:34;;;;;;;3.45;1.50;;;;;;;;;;5077014;28;20078;-20
2023/12/15 08:24:00;;;;;;;2.58;1.55;;;;;;;;;;5077212;28;20036;-21
2023/12/15 08:26:27;;;;;;;3.78;2.03;;;;;;;;;;5076854;28;20028;-22
2023/12/15 08:28:54;;;;;;;3.45;1.30;;;;;;;;;;5076806;28;20024;-21
2023/12/15 08:31:24;;;;;;;3.75;1.58;;;;;;;;;;5076690;28;20436;-19
2023/12/15 08:33:51;;;;;;;5.05;1.80;;;;;;;;;;5076675;28;20036;-18
2023/12/15 08:36:17;;;;;;;4.20;2.13;;;;;;;;;;5076749;28;20446;-21
2023/12/15 08:38:43;;;;;;;3.55;1.70;;;;;;;;;;5075592;28;20048;-22
2023/12/15 08:41:10;;;;;;;5.22;2.65;;;;;;;;;;5075584;28;20025;-23
2023/12/15 08:43:36;;;;;;;5.47;1.70;;;;;;;;;;5076567;28;20017;-22
2023/12/15 08:46:02;;;;;;;4.25;1.10;;;;;;;;;;5076254;28;20024;-21
2023/12/15 08:48:29;;;;;;;7.15;3.40;;;;;;;;;;5076543;28;20081;-23
2023/12/15 08:50:55;;;;;;;4.75;3.40;;;;;;;;;;5076750;28;20025;-21
2023/12/15 08:53:21;;;;;;;5.90;2.63;;;;;;;;;;5076929;28;20329;-20
2023/12/15 08:55:48;;;;;;;4.90;1.75;;;;;;;;;;5076306;28;20101;-21
2023/12/15 08:58:14;;;;;;;9.98;3.00;;;;;;;;;;5077062;28;20051;-22
2023/12/15 09:00:40;;;;;;;5.35;1.95;;;;;;;;;;5076011;28;20020;-18
2023/12/15 09:03:07;;;;;;;3.05;1.80;;;;;;;;;;5074847;28;20460;-22
2023/12/15 09:05:34;;;;;;;8.68;2.53;;;;;;;;;;5075911;28;20052;-20
2023/12/15 09:08:00;;;;;;;5.63;1.80;;;;;;;;;;5075104;28;20025;-21
2023/12/15 09:10:33;;;;;;;3.67;1.90;;;;;;;;;;5075950;28;20044;-21
2023/12/15 09:13:00;;;;;;;5.47;2.67;;;;;;;;;;5076145;28;20017;-20
2023/12/15 09:15:26;;;;;;;5.57;2.72;;;;;;;;;;5075618;28;20035;-20
2023/12/15 09:17:52;;;;;;;4.25;2.55;;;;;;;;;;5074777;28;20059;-20
2023/12/15 09:20:19;;;;;;;7.45;2.13;;;;;;;;;;5075831;28;20103;-19
2023/12/15 09:22:46;;;;;;;4.97;2.78;;;;;;;;;;5075688;28;20042;-22
2023/12/15 09:25:12;;;;;;;8.85;2.20;;;;;;;;;;5076647;28;20363;-18
2023/12/15 09:27:38;;;;;;;6.47;2.10;;;;;;;;;;5075730;28;20016;-20
2023/12/15 09:30:05;;;;;;;11.25;2.65;;;;;;;;;;5074341;28;20111;-21
2023/12/15 09:32:31;;;;;;;1.73;1.58;;;;;;;;;;5075538;28;20451;-21
2023/12/15 09:34:57;;;;;;;3.08;1.80;;;;;;;;;;5075576;28;20046;-20
2023/12/15 09:37:24;;;;;;;2.70;2.20;;;;;;;;;;5075585;28;20028;-20
2023/12/15 09:39:50;;;;;;;5.68;1.70;;;;;;;;;;5075438;28;20470;-20
2023/12/15 09:42:17;;;;;;;3.38;1.90;;;;;;;;;;5075351;28;20490;-20
2023/12/15 09:44:43;;;;;;;3.08;1.70;;;;;;;;;;5073922;28;20028;-22
2023/12/15 09:47:11;;;;;;;4.55;1.60;;;;;;;;;;5075253;28;20020;-20
2023/12/15 09:49:39;;;;;;;3.17;1.40;;;;;;;;;;5074967;28;20017;-22
2023/12/15 09:52:08;;;;;;;5.25;2.13;;;;;;;;;;5075024;28;20024;-20
2023/12/15 09:54:34;;;;;;;3.65;1.92;;;;;;;;;;5075457;28;20455;-21
2023/12/15 09:57:01;;;;;;;5.88;1.65;;;;;;;;;;5074821;28;20188;-21
2023/12/15 09:59:27;;;;;;;3.20;1.45;;;;;;;;;;5074756;28;20148;-22
2023/12/15 10:01:53;;;;;;;4.30;1.92;;;;;;;;;;5075010;28;20039;-21
2023/12/15 10:04:19;;;;;;;4.03;2.17;;;;;;;;;;5074514;28;20043;-20
2023/12/15 10:06:47;;;;;;;3.97;1.73;;;;;;;;;;5074942;28;20039;-20
2023/12/15 10:09:13;;;;;;;4.95;1.63;;;;;;;;;;5074645;28;20028;-18
2023/12/15 10:11:40;;;;;;;3.92;1.75;;;;;;;;;;5075098;28;20059;-22
2023/12/15 10:14:11;;;;;;;3.33;1.83;;;;;;;;;;5074278;28;20028;-23
2023/12/15 10:16:38;;;;;;;3.50;1.80;;;;;;;;;;5073632;28;20482;-20
2023/12/15 10:19:07;;;;;;;4.85;1.52;;;;;;;;;;5074457;28;20025;-20
2023/12/15 10:21:34;;;;;;;3.95;2.35;;;;;;;;;;5074964;28;20103;-20
2023/12/15 10:24:17;;;;;;;3.60;2.05;;;;;;;;;;5074440;28;20091;-20
2023/12/15 10:26:43;;;;;;;3.75;1.58;;;;;;;;;;5074814;28;20096;-20
2023/12/15 10:29:09;;;;;;;1.60;1.50;;;;;;;;;;5074519;28;20020;-20
2023/12/15 10:31:38;;;;;;;8.50;2.47;;;;;;;;;;5073411;28;20027;-21
2023/12/15 10:34:04;;;;;;;5.50;1.83;;;;;;;;;;5074649;28;20028;-21
2023/12/15 10:36:33;;;;;;;5.43;2.75;;;;;;;;;;5074452;28;20029;-24
2023/12/15 10:39:00;;;;;;;7.97;4.00;;;;;;;;;;5074287;28;20034;-21
2023/12/15 10:41:30;;;;;;;5.07;3.83;;;;;;;;;;5074394;28;20150;-21
2023/12/15 10:43:59;;;;;;;7.78;3.58;;;;;;;;;;5074261;28;20028;-21
2023/12/15 10:46:25;;;;;;;7.60;3.40;;;;;;;;;;5074141;28;20108;-20
2023/12/15 10:48:53;;;;;;;11.13;3.20;;;;;;;;;;5074210;28;20032;-28
2023/12/15 10:51:20;;;;;;;8.05;3.20;;;;;;;;;;5074181;28;20055;-19
2023/12/15 10:53:48;;;;;;;15.43;3.88;;;;;;;;;;5074374;28;20096;-22
2023/12/15 10:56:15;;;;;;;11.40;4.88;;;;;;;;;;5074157;28;20017;-25
2023/12/15 10:58:42;;;;;;;10.98;3.35;;;;;;;;;;5074459;28;20447;-21
2023/12/15 11:01:10;;;;;;;11.10;3.15;;;;;;;;;;5074011;28;20021;-19
2023/12/15 11:03:37;;;;;;;6.45;2.20;;;;;;;;;;5073968;28;20037;-21
2023/12/15 11:06:03;;;;;;;6.45;2.92;;;;;;;;;;5074445;28;20367;-20
2023/12/15 11:08:29;;;;;;;13.63;2.67;;;;;;;;;;5074122;28;20045;-20
2023/12/15 11:10:56;;;;;;;7.43;2.70;;;;;;;;;;5073975;28;20021;-20
2023/12/15 11:13:42;;;;;;;11.73;3.58;;;;;;;;;;5074403;28;20475;-20
2023/12/15 11:16:08;;;;;;;4.65;3.00;;;;;;;;;;5073999;28;20094;-20
2023/12/15 11:18:35;;;;;;;5.25;2.80;;;;;;;;;;5074099;28;20028;-24
2023/12/15 11:21:01;;;;;;;4.53;2.53;;;;;;;;;;5073870;28;20157;-19
2023/12/15 11:23:30;;;;;;;8.00;2.47;;;;;;;;;;5074318;28;20049;-21
2023/12/15 11:25:59;;;;;;;3.40;2.30;;;;;;;;;;5074413;28;20028;-22
2023/12/15 11:28:27;;;;;;;4.63;2.35;;;;;;;;;;5077880;28;20473;-21
2023/12/15 11:30:53;;;;;;;9.73;2.63;;;;;;;;;;5077525;28;20040;-18
2023/12/15 11:33:26;;;;;;;4.70;1.98;;;;;;;;;;5077767;28;20415;-19
2023/12/15 11:36:02;;;;;;;3.65;1.75;;;;;;;;;;5077567;28;20047;-20
2023/12/15 11:38:29;;;;;;;3.30;1.75;;;;;;;;;;5078070;28;20044;-20
2023/12/15 11:40:56;;;;;;;5.65;2.63;;;;;;;;;;5076459;28;20036;-21
2023/12/15 11:43:23;;;;;;;4.95;3.00;;;;;;;;;;5077882;28;20024;-18
2023/12/15 11:45:51;;;;;;;9.88;2.22;;;;;;;;;;5077396;28;20032;-21
2023/12/15 11:48:17;;;;;;;3.53;1.98;;;;;;;;;;5077462;28;20440;-20
2023/12/15 11:50:44;;;;;;;5.20;1.75;;;;;;;;;;5077283;28;20103;-22
2023/12/15 11:53:14;;;;;;;5.22;1.60;;;;;;;;;;5077623;28;20032;-20
2023/12/15 11:55:40;;;;;;;4.57;2.10;;;;;;;;;;5077503;28;20104;-21
2023/12/15 11:58:07;;;;;;;4.82;2.58;;;;;;;;;;5077536;28;20082;-19
2023/12/15 12:00:33;;;;;;;6.57;2.83;;;;;;;;;;5077241;28;20447;-23
2023/12/15 12:02:59;;;;;;;6.70;2.65;;;;;;;;;;5077055;28;20052;-22
2023/12/15 12:05:29;;;;;;;6.35;2.60;;;;;;;;;;5077567;28;20032;-21
2023/12/15 12:07:56;;;;;;;3.75;2.20;;;;;;;;;;5077117;28;20343;-18
2023/12/15 12:10:30;;;;;;;4.05;1.92;;;;;;;;;;5076316;28;20025;-20
2023/12/15 12:12:57;;;;;;;8.38;2.22;;;;;;;;;;5077290;28;20031;-22
2023/12/15 12:15:23;;;;;;;5.55;2.40;;;;;;;;;;5077183;28;20361;-21
2023/12/15 12:17:49;;;;;;;8.05;2.08;;;;;;;;;;5076851;28;20043;-22
2023/12/15 12:20:15;;;;;;;2.60;2.15;;;;;;;;;;5076852;28;20058;-20
2023/12/15 12:22:42;;;;;;;4.10;2.05;;;;;;;;;;5077102;28;20104;-23
2023/12/15 12:25:11;;;;;;;7.15;2.20;;;;;;;;;;5076728;28;20356;-21
2023/12/15 12:27:37;;;;;;;5.07;2.08;;;;;;;;;;5077107;28;20379;-22
2023/12/15 12:30:10;;;;;;;5.03;2.83;;;;;;;;;;5076779;28;20021;-26
2023/12/15 12:32:37;;;;;;;2.72;2.28;;;;;;;;;;5076737;28;20025;-19
2023/12/15 12:35:03;;;;;;;3.85;2.22;;;;;;;;;;5077467;28;20037;-22
2023/12/15 12:37:30;;;;;;;5.40;2.85;;;;;;;;;;5076499;28;20032;-20
2023/12/15 12:39:56;;;;;;;6.50;2.17;;;;;;;;;;5076665;28;20431;-20
2023/12/15 12:42:23;;;;;;;5.60;2.45;;;;;;;;;;5076838;28;20474;-21
2023/12/15 12:44:50;;;;;;;3.75;2.20;;;;;;;;;;5076639;28;20048;-24
2023/12/15 12:47:16;;;;;;;6.50;2.67;;;;;;;;;;5076364;28;20020;-19
2023/12/15 12:49:45;;;;;;;3.58;2.50;;;;;;;;;;5076908;28;20056;-22
2023/12/15 12:52:11;;;;;;;4.85;2.80;;;;;;;;;;5076213;28;20055;-21
2023/12/15 12:54:37;;;;;;;3.72;2.00;;;;;;;;;;5076303;28;20051;-20
2023/12/15 12:57:04;;;;;;;4.32;1.88;;;;;;;;;;5076226;28;20050;-19
2023/12/15 12:59:30;;;;;;;2.40;1.90;;;;;;;;;;5075875;28;20028;-22
2023/12/15 13:01:57;;;;;;;7.40;2.08;;;;;;;;;;5076055;28;20059;-20
2023/12/15 13:04:24;;;;;;;5.55;2.22;;;;;;;;;;5075694;28;20040;-20
2023/12/15 13:06:50;;;;;;;3.85;2.05;;;;;;;;;;5075990;28;20103;-20
2023/12/15 13:09:18;;;;;;;2.53;1.65;;;;;;;;;;5076159;28;20466;-21
2023/12/15 13:11:48;;;;;;;3.28;2.00;;;;;;;;;;5075977;28;20039;-21
2023/12/15 13:14:15;;;;;;;6.32;2.72;;;;;;;;;;5075849;28;20033;-22
2023/12/15 13:16:44;;;;;;;3.55;2.20;;;;;;;;;;5075766;28;20035;-24
2023/12/15 13:19:10;;;;;;;4.22;1.90;;;;;;;;;;5075715;28;20043;-22
2023/12/15 13:21:37;;;;;;;5.90;3.70;;;;;;;;;;5075904;28;20043;-23
2023/12/15 13:24:03;;;;;;;5.15;2.45;;;;;;;;;;5075643;28;20028;-20
2023/12/15 13:26:30;;;;;;;10.02;2.35;;;;;;;;;;5075794;28;20024;-22
2023/12/15 13:28:56;;;;;;;3.67;1.50;;;;;;;;;;5075836;28;20325;-20
2023/12/15 13:31:23;;;;;;;6.78;3.00;;;;;;;;;;5075309;28;20521;-20
2023/12/15 13:33:50;;;;;;;5.35;3.05;;;;;;;;;;5075485;28;20324;-21
2023/12/15 13:36:17;;;;;;;4.70;2.05;;;;;;;;;;5075334;28;20029;-20
2023/12/15 13:38:44;;;;;;;9.00;2.53;;;;;;;;;;5075309;28;20085;-22
2023/12/15 13:41:11;;;;;;;4.57;2.08;;;;;;;;;;5075242;28;20039;-21
2023/12/15 13:43:37;;;;;;;5.43;2.28;;;;;;;;;;5075775;28;20047;-22
2023/12/15 13:46:06;;;;;;;4.22;2.50;;;;;;;;;;5075585;28;20020;-20
2023/12/15 13:48:33;;;;;;;8.77;2.17;;;;;;;;;;5074736;28;20032;-21
2023/12/15 13:51:00;;;;;;;8.50;2.17;;;;;;;;;;5074972;28;20105;-23
2023/12/15 13:53:26;;;;;;;6.80;2.05;;;;;;;;;;5075196;28;20054;-21
2023/12/15 13:55:53;;;;;;;4.78;1.85;;;;;;;;;;5074136;28;20103;-21
2023/12/15 13:58:19;;;;;;;5.13;2.50;;;;;;;;;;5074046;28;20371;-19
2023/12/15 14:00:46;;;;;;;3.78;2.10;;;;;;;;;;5075024;28;20118;-24
2023/12/15 14:03:12;;;;;;;7.57;2.97;;;;;;;;;;5074668;28;20052;-23
2023/12/15 14:05:38;;;;;;;14.70;2.80;;;;;;;;;;5074933;28;20413;-21
2023/12/15 14:08:05;;;;;;;5.13;2.05;;;;;;;;;;5075519;28;20020;-21
2023/12/15 14:10:31;;;;;;;3.63;2.50;;;;;;;;;;5075108;28;20036;-21
2023/12/15 14:12:57;;;;;;;7.13;2.60;;;;;;;;;;5074882;28;20347;-21
2023/12/15 14:15:23;;;;;;;8.70;2.35;;;;;;;;;;5074700;28;20081;-22
2023/12/15 14:17:50;;;;;;;8.40;2.47;;;;;;;;;;5074852;28;20367;-23
2023/12/15 14:20:17;;;;;;;2.10;1.70;;;;;;;;;;5074843;28;20050;-22
2023/12/15 14:22:44;;;;;;;6.88;2.00;;;;;;;;;;5075103;28;20358;-25
2023/12/15 14:25:10;;;;;;;6.50;2.13;;;;;;;;;;5074558;28;20028;-19
2023/12/15 14:27:37;;;;;;;2.45;1.98;;;;;;;;;;5074668;28;20028;-19
2023/12/15 14:30:05;;;;;;;6.07;2.55;;;;;;;;;;5074523;28;20021;-21
2023/12/15 14:32:32;;;;;;;4.05;2.33;;;;;;;;;;5074537;28;20028;-19
2023/12/15 14:35:01;;;;;;;2.90;2.13;;;;;;;;;;5074632;28;20040;-23
2023/12/15 14:37:27;;;;;;;5.78;2.05;;;;;;;;;;5074922;28;20032;-24
2023/12/15 14:39:54;;;;;;;3.30;2.13;;;;;;;;;;5074736;28;20024;-21